Time;durP1;ratioP1;P1;durP2;ratioP2;P2;SDS_P1;SDS_P2;PMS_P1;PMS_P2;Temp;Humidity;BMP_temperature;BMP_pressure;BME280_temperature;BME280_humidity;BME280_pressure;Samples;Min_cycle;Max_cycle;Signal;HPM_P1;HPM_P2
2022/03/03 00:00:47;;;;;;;14.45;11.40;;;-1.10;99.90;;;;;;5002064;28;20200;-78
2022/03/03 00:03:14;;;;;;;15.30;10.95;;;-1.10;99.90;;;;;;4992767;28;20210;-77
2022/03/03 00:05:40;;;;;;;19.98;11.45;;;-1.10;99.90;;;;;;4991777;28;20565;-78
2022/03/03 00:08:08;;;;;;;15.68;10.90;;;-1.10;99.90;;;;;;4991101;28;20212;-78
2022/03/03 00:10:35;;;;;;;16.02;11.13;;;-1.10;99.90;;;;;;4991261;28;20226;-78
2022/03/03 00:13:02;;;;;;;15.50;10.63;;;-1.10;99.90;;;;;;4992063;28;20211;-78
2022/03/03 00:15:34;;;;;;;14.57;10.52;;;-1.10;99.90;;;;;;4990310;28;20255;-78
2022/03/03 00:18:01;;;;;;;17.13;11.52;;;-1.20;99.90;;;;;;4991059;28;20273;-76
2022/03/03 00:20:28;;;;;;;17.27;11.70;;;-1.20;99.90;;;;;;4991064;28;20199;-78
2022/03/03 00:22:55;;;;;;;17.15;11.38;;;-1.20;99.90;;;;;;4991924;28;20207;-78
2022/03/03 00:25:23;;;;;;;16.90;11.02;;;-1.20;99.90;;;;;;4991255;28;20223;-78
2022/03/03 00:27:50;;;;;;;18.15;11.63;;;-1.20;99.90;;;;;;4991560;28;20248;-78
2022/03/03 00:30:17;;;;;;;13.43;11.02;;;-1.20;99.90;;;;;;4992073;28;20874;-78
2022/03/03 00:32:44;;;;;;;16.33;11.95;;;-1.20;99.90;;;;;;4991503;28;20239;-77
2022/03/03 00:35:12;;;;;;;17.45;11.50;;;-1.20;99.90;;;;;;4992017;28;20227;-78
2022/03/03 00:37:39;;;;;;;16.75;11.40;;;-1.20;99.90;;;;;;4991511;28;20604;-78
2022/03/03 00:40:08;;;;;;;16.23;11.55;;;-1.30;99.90;;;;;;4991683;28;20213;-76
2022/03/03 00:42:36;;;;;;;16.30;11.48;;;-1.30;99.90;;;;;;4991618;28;20236;-78
2022/03/03 00:45:03;;;;;;;19.85;12.23;;;-1.30;99.90;;;;;;4991707;28;20234;-78
2022/03/03 00:47:29;;;;;;;16.50;12.65;;;-1.30;99.90;;;;;;4991153;28;20203;-78
2022/03/03 00:49:56;;;;;;;17.15;11.85;;;-1.30;99.90;;;;;;4991444;28;20618;-78
2022/03/03 00:52:23;;;;;;;16.83;11.13;;;-1.30;99.90;;;;;;4989798;28;20223;-79
2022/03/03 00:54:49;;;;;;;15.73;11.05;;;-1.30;99.90;;;;;;4991238;28;20223;-78
2022/03/03 00:57:16;;;;;;;16.30;11.88;;;-1.30;99.90;;;;;;4990809;28;20207;-78
2022/03/03 00:59:44;;;;;;;17.17;11.60;;;-1.30;99.90;;;;;;4990918;28;20210;-77
2022/03/03 01:02:11;;;;;;;17.17;12.05;;;-1.30;99.90;;;;;;4997065;28;20196;-77
2022/03/03 01:04:38;;;;;;;17.17;12.40;;;-1.30;99.90;;;;;;5004045;28;20294;-77
2022/03/03 01:07:06;;;;;;;16.45;12.18;;;-1.30;99.90;;;;;;5001760;28;20213;-77
2022/03/03 01:09:32;;;;;;;14.98;12.15;;;-1.40;99.90;;;;;;5001312;28;20202;-77
2022/03/03 01:11:59;;;;;;;14.23;10.95;;;-1.50;99.90;;;;;;5002588;28;20227;-77
2022/03/03 01:14:26;;;;;;;18.67;10.50;;;-1.50;99.90;;;;;;4995371;28;20229;-78
2022/03/03 01:16:54;;;;;;;17.92;11.88;;;-1.50;99.90;;;;;;4991925;28;20195;-78
2022/03/03 01:19:21;;;;;;;14.90;12.13;;;-1.60;99.90;;;;;;4993634;28;20211;-77
2022/03/03 01:21:48;;;;;;;15.35;11.05;;;-1.60;99.90;;;;;;4995457;28;20199;-77
2022/03/03 01:24:15;;;;;;;19.17;12.15;;;-1.60;99.90;;;;;;4994960;28;20231;-78
2022/03/03 01:26:41;;;;;;;16.27;11.50;;;-1.60;99.90;;;;;;4994076;28;20203;-78
2022/03/03 01:29:08;;;;;;;17.58;12.23;;;-1.60;99.90;;;;;;5000494;28;20207;-78
2022/03/03 01:31:35;;;;;;;13.07;10.57;;;-1.60;99.90;;;;;;5001936;28;20257;-78
2022/03/03 01:34:03;;;;;;;16.10;11.20;;;-1.60;99.90;;;;;;5001531;28;20246;-77
2022/03/03 01:36:30;;;;;;;17.80;11.77;;;-1.60;99.90;;;;;;4992691;28;20222;-76
2022/03/03 01:38:57;;;;;;;15.40;11.95;;;-1.70;99.90;;;;;;4992440;28;20681;-76
2022/03/03 01:41:23;;;;;;;16.92;11.60;;;-1.70;99.90;;;;;;4995873;28;20212;-78
2022/03/03 01:43:50;;;;;;;14.23;11.15;;;-1.60;99.90;;;;;;4995885;28;20231;-78
2022/03/03 01:46:17;;;;;;;15.38;11.38;;;-1.60;99.90;;;;;;4994609;28;20214;-77
2022/03/03 01:48:44;;;;;;;16.50;11.75;;;-1.70;99.90;;;;;;4994014;28;20199;-78
2022/03/03 01:51:13;;;;;;;16.45;12.68;;;-1.80;99.90;;;;;;4993833;28;20230;-77
2022/03/03 01:53:40;;;;;;;16.35;11.90;;;-1.90;99.90;;;;;;4993259;28;20227;-78
2022/03/03 01:56:08;;;;;;;16.75;11.75;;;-1.90;99.90;;;;;;4993391;28;20210;-78
2022/03/03 01:58:35;;;;;;;13.10;10.98;;;-2.00;99.90;;;;;;4992841;28;20203;-77
2022/03/03 02:01:02;;;;;;;16.33;11.65;;;-2.00;99.90;;;;;;4993427;28;20195;-76
2022/03/03 02:03:28;;;;;;;18.88;10.43;;;-2.00;99.90;;;;;;4993976;28;20223;-78
2022/03/03 02:05:55;;;;;;;14.20;11.43;;;-2.00;99.90;;;;;;4997513;28;20647;-78
2022/03/03 02:08:24;;;;;;;19.42;12.50;;;-1.90;99.90;;;;;;4996839;28;20207;-78
2022/03/03 02:10:52;;;;;;;14.85;11.48;;;-2.00;99.90;;;;;;4994273;28;20788;-77
2022/03/03 02:13:19;;;;;;;22.52;11.85;;;-2.00;99.90;;;;;;4995041;28;20211;-76
2022/03/03 02:15:51;;;;;;;16.40;11.43;;;-2.10;99.90;;;;;;4996204;28;20208;-78
2022/03/03 02:18:18;;;;;;;18.48;11.85;;;-2.10;99.90;;;;;;4995158;28;20207;-78
2022/03/03 02:20:47;;;;;;;15.40;12.07;;;-2.10;99.90;;;;;;4995132;28;20571;-77
2022/03/03 02:23:13;;;;;;;18.08;12.63;;;-2.10;99.90;;;;;;4995133;28;20207;-77
2022/03/03 02:25:40;;;;;;;16.35;12.43;;;-2.10;99.90;;;;;;4995058;28;20207;-78
2022/03/03 02:28:07;;;;;;;15.57;11.57;;;-2.00;99.90;;;;;;4993653;28;20203;-78
2022/03/03 02:30:34;;;;;;;22.55;12.95;;;-2.00;99.90;;;;;;4993927;28;20218;-78
2022/03/03 02:33:00;;;;;;;17.02;12.10;;;-1.90;99.90;;;;;;4993653;28;20238;-77
2022/03/03 02:35:29;;;;;;;15.38;11.57;;;-2.00;99.90;;;;;;4993246;28;20227;-78
2022/03/03 02:37:57;;;;;;;18.10;12.80;;;-2.10;99.90;;;;;;4993559;28;20219;-78
2022/03/03 02:40:24;;;;;;;20.23;11.93;;;-2.10;99.90;;;;;;4992712;28;20225;-78
2022/03/03 02:42:52;;;;;;;16.90;11.73;;;-2.10;99.90;;;;;;4993713;28;20247;-78
2022/03/03 02:45:20;;;;;;;14.60;11.30;;;-2.20;99.90;;;;;;4993093;28;20226;-78
2022/03/03 02:47:48;;;;;;;15.98;12.27;;;-2.20;99.90;;;;;;4992813;28;20306;-77
2022/03/03 02:50:16;;;;;;;17.50;12.85;;;-2.20;99.90;;;;;;4992914;28;20199;-78
2022/03/03 02:52:43;;;;;;;18.13;12.80;;;-2.20;99.90;;;;;;4991938;28;20229;-77
2022/03/03 02:55:12;;;;;;;18.65;12.43;;;-2.20;99.90;;;;;;4991050;28;20224;-77
2022/03/03 02:57:57;;;;;;;16.05;11.70;;;-2.30;99.90;;;;;;4990380;28;20372;-77
2022/03/03 03:00:26;;;;;;;14.05;11.15;;;-2.20;99.90;;;;;;4991243;28;20219;-77
2022/03/03 03:02:53;;;;;;;14.55;12.00;;;-2.30;99.90;;;;;;4993414;28;20207;-78
2022/03/03 03:05:20;;;;;;;16.95;12.43;;;-2.30;99.90;;;;;;4992341;28;20231;-77
2022/03/03 03:07:47;;;;;;;20.52;12.38;;;-2.30;99.90;;;;;;4992377;28;20205;-78
2022/03/03 03:10:16;;;;;;;20.88;13.57;;;-2.30;99.90;;;;;;4992528;28;20235;-78
2022/03/03 03:12:42;;;;;;;20.38;13.10;;;-2.30;99.90;;;;;;4992647;28;20219;-78
2022/03/03 03:15:09;;;;;;;21.98;13.13;;;-2.30;99.90;;;;;;5006747;28;20246;-78
2022/03/03 03:17:37;;;;;;;21.42;13.77;;;-2.40;99.90;;;;;;5001503;28;20210;-78
2022/03/03 03:20:06;;;;;;;19.58;13.48;;;-2.40;99.90;;;;;;4992889;28;20207;-78
2022/03/03 03:22:34;;;;;;;18.95;12.13;;;-2.50;99.90;;;;;;4992574;28;20685;-77
2022/03/03 03:25:01;;;;;;;16.75;12.75;;;-2.40;99.90;;;;;;4992336;28;20235;-78
2022/03/03 03:27:29;;;;;;;15.85;11.55;;;-2.40;99.90;;;;;;4991965;28;20203;-78
2022/03/03 03:29:56;;;;;;;19.10;12.85;;;-2.40;99.90;;;;;;4992756;28;20211;-78
2022/03/03 03:32:23;;;;;;;18.85;12.57;;;-2.40;99.90;;;;;;4993037;28;20223;-78
2022/03/03 03:34:49;;;;;;;19.92;11.52;;;-2.40;99.90;;;;;;4990369;28;20226;-77
2022/03/03 03:37:17;;;;;;;16.65;12.15;;;-2.40;99.90;;;;;;4990056;28;20207;-77
2022/03/03 03:39:44;;;;;;;18.08;12.35;;;-2.50;99.90;;;;;;4991093;28;20291;-77
2022/03/03 03:42:10;;;;;;;21.00;14.18;;;-2.50;99.90;;;;;;4990253;28;20298;-76
2022/03/03 03:44:39;;;;;;;15.93;12.85;;;-2.50;99.90;;;;;;4991707;28;20379;-78
2022/03/03 03:47:06;;;;;;;16.90;12.38;;;-2.60;99.90;;;;;;4990351;28;20227;-77
2022/03/03 03:49:33;;;;;;;18.35;12.80;;;-2.60;99.90;;;;;;4990310;28;20203;-77
2022/03/03 03:52:00;;;;;;;27.02;13.32;;;-2.60;99.90;;;;;;4990269;28;20230;-77
2022/03/03 03:54:27;;;;;;;19.90;12.82;;;-2.60;99.90;;;;;;4990159;28;20235;-77
2022/03/03 03:56:54;;;;;;;19.92;13.07;;;-2.60;99.90;;;;;;4990981;28;20203;-77
2022/03/03 03:59:20;;;;;;;19.58;13.35;;;-2.60;99.90;;;;;;4990705;28;20219;-77
2022/03/03 04:01:48;;;;;;;18.42;12.23;;;-2.60;99.90;;;;;;4991256;28;20222;-78
2022/03/03 04:04:16;;;;;;;21.63;13.70;;;-2.60;99.90;;;;;;4991408;28;20223;-77
2022/03/03 04:06:42;;;;;;;18.70;13.80;;;-2.60;99.90;;;;;;4995938;28;20214;-77
2022/03/03 04:09:09;;;;;;;25.15;13.07;;;-2.60;99.90;;;;;;4993680;28;20215;-78
2022/03/03 04:11:36;;;;;;;21.08;12.23;;;-2.70;99.90;;;;;;4991994;28;20226;-78
2022/03/03 04:14:03;;;;;;;17.95;12.45;;;-2.80;99.90;;;;;;4992250;28;20656;-77
2022/03/03 04:16:30;;;;;;;16.88;12.18;;;-2.80;99.90;;;;;;4992187;28;20235;-77
2022/03/03 04:18:59;;;;;;;26.45;14.00;;;-2.80;99.90;;;;;;4989990;28;20745;-78
2022/03/03 04:21:25;;;;;;;17.25;12.32;;;-2.80;99.90;;;;;;4990317;28;20597;-78
2022/03/03 04:23:52;;;;;;;19.80;13.65;;;-2.80;99.90;;;;;;4990131;28;20222;-78
2022/03/03 04:26:19;;;;;;;21.80;13.93;;;-2.90;99.90;;;;;;4991545;28;20694;-77
2022/03/03 04:28:46;;;;;;;19.20;12.80;;;-2.90;99.90;;;;;;4992608;28;20226;-78
2022/03/03 04:31:12;;;;;;;18.90;12.93;;;-2.90;99.90;;;;;;5068650;28;20200;-78
2022/03/03 04:33:39;;;;;;;18.35;12.73;;;-3.00;99.90;;;;;;5063927;28;20225;-79
2022/03/03 04:36:08;;;;;;;20.90;12.77;;;-3.00;99.90;;;;;;5011909;28;20241;-79
2022/03/03 04:38:35;;;;;;;21.35;12.60;;;-3.00;99.90;;;;;;5099734;28;20180;-78
2022/03/03 04:41:02;;;;;;;23.88;14.20;;;-3.00;99.90;;;;;;5111766;28;20223;-77
2022/03/03 04:43:28;;;;;;;17.67;13.45;;;-3.00;99.90;;;;;;5103964;28;20437;-79
2022/03/03 04:45:55;;;;;;;19.77;14.98;;;-3.00;99.90;;;;;;5030073;22;20604;-76
2022/03/03 04:48:29;;;;;;;17.65;12.70;;;-3.00;99.90;;;;;;4986972;28;20210;-77
2022/03/03 04:50:56;;;;;;;18.52;12.80;;;-3.00;99.90;;;;;;4988241;28;20230;-76
2022/03/03 04:53:25;;;;;;;19.00;12.73;;;-3.00;99.90;;;;;;4988986;28;20631;-77
2022/03/03 04:55:51;;;;;;;18.90;13.55;;;-3.00;99.90;;;;;;4990255;28;20214;-77
2022/03/03 04:58:18;;;;;;;21.17;13.68;;;-3.00;99.90;;;;;;4988612;28;20210;-76
2022/03/03 05:00:45;;;;;;;17.13;12.95;;;-3.00;99.90;;;;;;4988143;28;20211;-76
2022/03/03 05:03:12;;;;;;;16.48;11.93;;;-3.00;99.90;;;;;;4989132;28;20200;-77
2022/03/03 05:05:38;;;;;;;17.77;13.10;;;-3.00;99.90;;;;;;4989313;28;20601;-76
2022/03/03 05:08:06;;;;;;;17.77;13.07;;;-3.10;99.90;;;;;;4989117;28;20218;-78
2022/03/03 05:10:34;;;;;;;19.33;14.20;;;-3.20;99.90;;;;;;4989530;28;20203;-77
2022/03/03 05:13:01;;;;;;;21.45;14.05;;;-3.10;99.90;;;;;;4990177;28;20230;-77
2022/03/03 05:15:28;;;;;;;19.15;14.45;;;-3.10;99.90;;;;;;4991160;28;20215;-79
2022/03/03 05:17:55;;;;;;;18.95;12.65;;;-3.20;99.90;;;;;;4989465;28;20207;-78
2022/03/03 05:20:21;;;;;;;16.85;12.70;;;-3.30;99.90;;;;;;4989661;28;20693;-77
2022/03/03 05:22:49;;;;;;;23.70;17.55;;;-3.30;99.90;;;;;;5001633;28;20676;-81
2022/03/03 05:25:16;;;;;;;21.10;14.85;;;-3.30;99.90;;;;;;5006963;28;20223;-83
2022/03/03 05:27:44;;;;;;;22.27;15.38;;;-3.20;99.90;;;;;;5014896;28;20214;-81
2022/03/03 05:30:11;;;;;;;21.27;14.75;;;-3.10;99.90;;;;;;5017951;28;20668;-81
2022/03/03 05:32:38;;;;;;;21.20;14.60;;;-3.10;99.90;;;;;;5022725;28;20211;-82
2022/03/03 05:35:07;;;;;;;20.13;13.93;;;-3.20;99.90;;;;;;5023067;28;20222;-80
2022/03/03 05:37:34;;;;;;;21.48;15.30;;;-3.20;99.90;;;;;;5022976;28;20728;-81
2022/03/03 05:40:02;;;;;;;21.08;14.07;;;-3.20;99.90;;;;;;5025523;28;20228;-81
2022/03/03 05:42:29;;;;;;;20.48;13.18;;;-3.20;99.90;;;;;;5025488;28;20610;-81
2022/03/03 05:44:57;;;;;;;20.58;12.73;;;-3.20;99.90;;;;;;5021680;28;20235;-81
2022/03/03 05:47:29;;;;;;;17.42;12.20;;;-3.20;99.90;;;;;;5025300;28;20202;-81
2022/03/03 05:49:56;;;;;;;21.75;13.40;;;-3.20;99.90;;;;;;5026778;28;20675;-81
2022/03/03 05:52:23;;;;;;;19.70;12.95;;;-3.20;99.90;;;;;;5025673;28;20576;-81
2022/03/03 05:54:50;;;;;;;17.67;12.55;;;-3.30;99.90;;;;;;5025555;28;20222;-82
2022/03/03 05:57:19;;;;;;;20.05;13.13;;;-3.30;99.90;;;;;;5023752;28;20263;-81
2022/03/03 05:59:49;;;;;;;17.13;12.00;;;-3.30;99.90;;;;;;5009163;28;20241;-80
2022/03/03 06:02:19;;;;;;;18.38;12.93;;;-3.30;99.90;;;;;;5009607;28;20211;-80
2022/03/03 06:04:48;;;;;;;18.17;11.95;;;-3.30;99.90;;;;;;5014213;28;20234;-81
2022/03/03 06:07:21;;;;;;;19.25;12.23;;;-3.30;99.90;;;;;;5017438;28;20267;-80
2022/03/03 06:09:53;;;;;;;22.88;12.63;;;-3.30;99.90;;;;;;5019007;28;20198;-78
2022/03/03 06:12:26;;;;;;;22.52;14.50;;;-3.30;99.90;;;;;;5018566;28;20234;-76
2022/03/03 06:14:54;;;;;;;20.48;13.82;;;-3.30;99.90;;;;;;5019110;28;20227;-77
2022/03/03 06:17:25;;;;;;;20.75;13.35;;;-3.30;99.90;;;;;;5017814;28;20210;-75
2022/03/03 06:19:52;;;;;;;22.02;13.82;;;-3.30;99.90;;;;;;5018107;28;20649;-76
2022/03/03 06:22:20;;;;;;;21.63;12.85;;;-3.20;99.90;;;;;;5018094;28;20202;-78
2022/03/03 06:24:47;;;;;;;18.95;13.27;;;-3.20;99.90;;;;;;5017954;28;20222;-76
2022/03/03 06:27:14;;;;;;;21.60;13.57;;;-3.20;99.90;;;;;;5018058;28;20328;-76
2022/03/03 06:29:41;;;;;;;21.70;13.32;;;-3.20;99.90;;;;;;5016191;28;20218;-77
2022/03/03 06:32:08;;;;;;;20.05;13.75;;;-3.20;99.90;;;;;;5021918;28;20207;-78
2022/03/03 06:34:37;;;;;;;19.63;12.73;;;-3.10;99.90;;;;;;5024412;28;20223;-78
2022/03/03 06:37:04;;;;;;;21.13;14.40;;;-3.00;99.90;;;;;;5024993;28;20243;-79
2022/03/03 06:39:31;;;;;;;20.80;13.23;;;-2.90;99.90;;;;;;5025587;28;20203;-78
2022/03/03 06:41:58;;;;;;;17.55;12.90;;;-2.90;99.90;;;;;;5027186;28;20205;-79
2022/03/03 06:44:25;;;;;;;21.90;13.05;;;-2.90;99.90;;;;;;5025514;28;20233;-78
2022/03/03 06:46:51;;;;;;;18.42;13.13;;;-2.90;99.90;;;;;;5026493;28;20218;-78
2022/03/03 06:49:18;;;;;;;17.55;13.07;;;-2.80;99.90;;;;;;5025670;28;20748;-78
2022/03/03 06:51:48;;;;;;;24.92;13.77;;;-2.80;99.90;;;;;;5027395;28;20199;-79
2022/03/03 06:54:17;;;;;;;21.95;13.93;;;-2.70;99.90;;;;;;5026726;28;20222;-78
2022/03/03 06:56:48;;;;;;;19.45;14.15;;;-2.70;99.90;;;;;;5026672;28;20211;-79
2022/03/03 06:59:19;;;;;;;20.73;13.95;;;-2.50;99.90;;;;;;5027440;28;20203;-77
2022/03/03 07:01:48;;;;;;;22.17;14.75;;;-2.40;99.90;;;;;;5028596;28;20218;-79
2022/03/03 07:04:17;;;;;;;19.25;14.05;;;-2.30;99.90;;;;;;5027815;28;20708;-79
2022/03/03 07:06:46;;;;;;;25.33;13.88;;;-2.30;99.90;;;;;;5027470;28;20274;-77
2022/03/03 07:09:14;;;;;;;22.83;15.45;;;-2.20;99.90;;;;;;5028312;28;20206;-78
2022/03/03 07:11:43;;;;;;;35.72;16.10;;;-2.00;99.90;;;;;;5028280;28;20215;-79
2022/03/03 07:14:11;;;;;;;23.75;14.48;;;-1.70;99.90;;;;;;5028639;28;20237;-78
2022/03/03 07:16:42;;;;;;;17.98;13.00;;;-1.00;99.90;;;;;;5026775;28;20266;-78
2022/03/03 07:19:35;;;;;;;23.13;14.43;;;0.10;99.90;;;;;;5028949;28;20213;-79
2022/03/03 07:22:12;;;;;;;19.45;13.55;;;1.30;99.90;;;;;;5029270;28;20198;-77
2022/03/03 07:24:44;;;;;;;20.02;13.85;;;2.30;99.90;;;;;;5029518;28;20218;-79
2022/03/03 07:27:18;;;;;;;21.35;13.68;;;2.80;98.70;;;;;;5028595;28;20218;-79
2022/03/03 07:29:50;;;;;;;18.45;14.00;;;3.30;97.30;;;;;;5025271;28;20286;-76
2022/03/03 07:32:19;;;;;;;26.88;15.30;;;3.90;97.00;;;;;;5014344;28;20206;-78
2022/03/03 07:34:51;;;;;;;17.65;14.35;;;4.90;96.00;;;;;;5030583;28;20215;-79
2022/03/03 07:37:22;;;;;;;18.20;13.13;;;6.10;94.70;;;;;;5033008;28;20183;-78
2022/03/03 07:39:49;;;;;;;18.08;13.77;;;7.10;93.20;;;;;;5033902;28;20214;-79
2022/03/03 07:42:18;;;;;;;24.95;13.13;;;8.10;91.60;;;;;;5032646;28;20239;-78
2022/03/03 07:44:46;;;;;;;18.92;13.82;;;9.00;90.90;;;;;;5028508;28;20218;-79
2022/03/03 07:47:13;;;;;;;17.35;13.63;;;9.70;88.90;;;;;;5028984;28;20194;-79
2022/03/03 07:49:41;;;;;;;15.10;13.43;;;10.40;87.90;;;;;;5030576;28;20199;-78
2022/03/03 07:52:09;;;;;;;16.83;13.38;;;11.10;84.50;;;;;;5029147;28;20217;-78
2022/03/03 07:54:37;;;;;;;18.10;13.77;;;11.70;81.90;;;;;;5028306;28;20227;-78
2022/03/03 07:57:07;;;;;;;16.63;13.05;;;12.00;83.50;;;;;;5025409;28;20217;-78
2022/03/03 07:59:36;;;;;;;19.45;14.40;;;12.00;82.20;;;;;;5026027;28;20218;-77
2022/03/03 08:02:05;;;;;;;21.00;14.10;;;12.40;81.90;;;;;;5028167;28;20229;-78
2022/03/03 08:04:33;;;;;;;17.55;13.77;;;12.60;80.00;;;;;;5027287;28;20231;-77
2022/03/03 08:07:11;;;;;;;17.42;14.55;;;12.40;79.80;;;;;;5027709;28;20229;-78
2022/03/03 08:09:42;;;;;;;20.08;14.57;;;12.50;78.80;;;;;;5027185;28;20214;-77
2022/03/03 08:12:10;;;;;;;17.95;13.95;;;12.70;80.30;;;;;;5027409;28;20209;-77
2022/03/03 08:14:37;;;;;;;17.35;14.02;;;12.80;80.20;;;;;;5014604;28;20227;-78
2022/03/03 08:17:04;;;;;;;16.05;14.07;;;12.90;81.10;;;;;;5004853;28;20218;-78
2022/03/03 08:19:31;;;;;;;16.83;15.07;;;13.20;79.40;;;;;;4991554;28;20211;-78
2022/03/03 08:21:59;;;;;;;17.00;14.23;;;13.50;78.80;;;;;;4998881;28;20207;-77
2022/03/03 08:24:27;;;;;;;21.10;14.80;;;13.80;78.40;;;;;;5002799;28;20482;-77
2022/03/03 08:26:56;;;;;;;19.73;14.53;;;14.10;77.50;;;;;;5012405;28;20183;-77
2022/03/03 08:29:24;;;;;;;18.50;15.50;;;14.50;75.90;;;;;;5013842;28;20438;-77
2022/03/03 08:31:54;;;;;;;16.80;14.73;;;14.80;76.60;;;;;;5014369;28;20530;-77
2022/03/03 08:34:34;;;;;;;17.70;14.20;;;15.30;75.40;;;;;;5010950;28;20526;-78
2022/03/03 08:37:07;;;;;;;18.90;15.57;;;15.60;74.40;;;;;;5008898;28;20442;-79
2022/03/03 08:39:38;;;;;;;18.47;14.60;;;16.00;73.00;;;;;;5009629;28;20484;-78
2022/03/03 08:42:09;;;;;;;19.00;15.23;;;15.80;73.30;;;;;;5010348;28;20531;-77
2022/03/03 08:44:38;;;;;;;17.03;15.10;;;15.50;73.40;;;;;;5010163;28;20481;-78
2022/03/03 08:47:06;;;;;;;19.70;16.73;;;15.40;74.00;;;;;;5008928;28;20446;-79
2022/03/03 08:49:37;;;;;;;22.83;14.53;;;15.00;73.50;;;;;;5008041;28;20470;-78
2022/03/03 08:52:04;;;;;;;18.13;15.63;;;15.30;74.20;;;;;;5009237;28;20474;-78
2022/03/03 08:54:31;;;;;;;17.83;15.47;;;15.70;73.60;;;;;;5008855;28;20494;-79
2022/03/03 08:56:58;;;;;;;19.13;15.30;;;16.10;73.10;;;;;;5008712;28;20455;-78
2022/03/03 08:59:26;;;;;;;19.53;15.10;;;16.30;72.60;;;;;;5010339;28;20454;-78
2022/03/03 09:01:54;;;;;;;18.13;15.77;;;16.50;72.00;;;;;;5009364;28;20455;-78
2022/03/03 09:04:20;;;;;;;17.73;14.23;;;17.40;69.70;;;;;;5009415;28;20474;-79
2022/03/03 09:06:47;;;;;;;17.87;13.73;;;17.90;66.30;;;;;;5008564;28;20826;-79
2022/03/03 09:09:14;;;;;;;15.13;13.50;;;18.30;66.20;;;;;;5008977;28;20458;-79
2022/03/03 09:11:40;;;;;;;17.03;14.73;;;19.00;66.40;;;;;;5009240;28;20462;-78
2022/03/03 09:14:08;;;;;;;18.67;14.83;;;19.60;66.20;;;;;;5008947;28;20490;-79
2022/03/03 09:16:36;;;;;;;19.20;16.40;;;19.60;64.60;;;;;;5008258;28;20455;-78
2022/03/03 09:19:03;;;;;;;16.47;14.77;;;19.40;66.20;;;;;;5008611;28;20451;-79
2022/03/03 09:21:30;;;;;;;17.07;14.77;;;20.00;64.60;;;;;;5009311;28;20453;-79
2022/03/03 09:23:57;;;;;;;16.40;14.70;;;20.20;62.80;;;;;;5008764;28;20450;-79
2022/03/03 09:26:23;;;;;;;17.00;15.30;;;20.40;63.00;;;;;;5008234;28;20813;-78
2022/03/03 09:28:50;;;;;;;21.73;16.23;;;20.40;61.60;;;;;;5008956;28;20470;-79
2022/03/03 09:31:17;;;;;;;17.67;15.70;;;21.00;62.40;;;;;;5008263;28;20458;-77
2022/03/03 09:33:45;;;;;;;17.80;15.90;;;21.40;61.90;;;;;;5008577;28;20484;-79
2022/03/03 09:36:12;;;;;;;19.90;15.43;;;21.40;62.10;;;;;;5008306;28;20438;-79
2022/03/03 09:38:38;;;;;;;18.30;15.57;;;21.30;61.90;;;;;;5007451;28;20463;-79
2022/03/03 09:41:05;;;;;;;17.37;15.07;;;21.30;60.80;;;;;;5011510;28;20453;-79
2022/03/03 09:43:32;;;;;;;21.90;16.60;;;21.70;61.30;;;;;;5010621;28;20458;-78
2022/03/03 09:45:58;;;;;;;20.23;15.40;;;22.00;61.80;;;;;;5011678;28;20454;-79
2022/03/03 09:48:25;;;;;;;18.70;16.73;;;22.30;61.20;;;;;;5010887;28;20458;-79
2022/03/03 09:50:53;;;;;;;18.33;16.23;;;22.60;61.40;;;;;;5010988;28;20462;-78
2022/03/03 09:53:20;;;;;;;21.57;17.20;;;22.50;61.60;;;;;;5008490;28;20462;-78
2022/03/03 09:55:49;;;;;;;20.90;16.70;;;22.20;61.60;;;;;;5011234;28;20469;-78
2022/03/03 09:58:17;;;;;;;18.23;16.30;;;21.60;60.40;;;;;;5011035;28;20461;-79
2022/03/03 10:00:44;;;;;;;18.63;16.70;;;21.80;61.30;;;;;;5011598;28;20470;-78
2022/03/03 10:03:13;;;;;;;19.13;17.00;;;22.50;59.50;;;;;;5011631;28;20465;-79
2022/03/03 10:05:42;;;;;;;20.77;16.67;;;22.60;59.80;;;;;;5011262;28;20488;-79
2022/03/03 10:08:12;;;;;;;18.10;15.87;;;22.60;59.90;;;;;;5011285;28;20473;-79
2022/03/03 10:10:41;;;;;;;18.97;16.43;;;23.50;59.50;;;;;;5011342;28;20449;-78
2022/03/03 10:13:09;;;;;;;18.87;16.43;;;24.00;59.00;;;;;;5010751;28;20458;-78
2022/03/03 10:15:37;;;;;;;18.63;16.40;;;23.50;58.60;;;;;;5011349;28;20507;-78
2022/03/03 10:18:06;;;;;;;21.00;17.43;;;23.90;57.80;;;;;;5011408;28;20552;-78
2022/03/03 10:20:38;;;;;;;18.47;16.00;;;24.30;57.70;;;;;;5003065;28;20466;-77
2022/03/03 10:23:09;;;;;;;18.80;16.40;;;23.50;58.40;;;;;;4992519;28;20465;-76
2022/03/03 10:25:39;;;;;;;19.03;17.13;;;23.50;58.40;;;;;;4991647;28;20490;-76
2022/03/03 10:28:18;;;;;;;19.57;16.97;;;23.80;58.50;;;;;;4991199;28;20466;-77
2022/03/03 10:30:51;;;;;;;19.77;17.77;;;24.20;57.90;;;;;;4992637;28;20465;-77
2022/03/03 10:33:20;;;;;;;20.90;17.77;;;23.80;57.80;;;;;;4991424;28;20458;-77
2022/03/03 10:36:06;;;;;;;17.87;15.97;;;23.90;57.00;;;;;;4991044;28;20471;-77
2022/03/03 10:38:35;;;;;;;18.10;16.30;;;24.00;57.30;;;;;;4990807;28;20498;-77
2022/03/03 10:41:04;;;;;;;20.40;17.17;;;23.70;57.30;;;;;;4990599;28;20480;-77
2022/03/03 10:43:48;;;;;;;21.20;18.70;;;24.00;56.90;;;;;;5011885;28;20482;-79
2022/03/03 10:46:15;;;;;;;18.87;16.87;;;24.30;57.00;;;;;;5009656;28;20533;-79
2022/03/03 10:48:42;;;;;;;19.40;17.50;;;24.90;55.90;;;;;;5010345;28;20487;-79
2022/03/03 10:51:11;;;;;;;18.47;16.60;;;24.90;55.30;;;;;;5010414;28;20466;-79
2022/03/03 10:53:38;;;;;;;17.87;16.07;;;25.40;54.70;;;;;;5010301;28;20498;-79
2022/03/03 10:56:08;;;;;;;19.33;17.33;;;25.70;55.00;;;;;;5010741;28;20465;-79
2022/03/03 10:58:46;;;;;;;19.57;17.57;;;25.90;54.00;;;;;;5004177;28;20458;-77
2022/03/03 11:01:14;;;;;;;19.80;17.17;;;25.20;54.80;;;;;;5001861;28;20466;-77
2022/03/03 11:03:41;;;;;;;20.67;18.50;;;24.80;54.40;;;;;;4990463;28;20478;-77
2022/03/03 11:06:08;;;;;;;26.97;24.07;;;24.80;54.30;;;;;;4993008;28;20458;-79
2022/03/03 11:08:36;;;;;;;22.33;19.90;;;24.80;54.30;;;;;;4991786;28;20473;-79
2022/03/03 11:11:03;;;;;;;25.80;21.10;;;24.70;54.30;;;;;;4991367;28;20464;-77
2022/03/03 11:13:32;;;;;;;21.50;18.20;;;24.10;55.20;;;;;;4994774;28;20496;-77
2022/03/03 11:15:59;;;;;;;19.53;17.40;;;24.00;54.70;;;;;;4992200;28;20454;-79
2022/03/03 11:18:26;;;;;;;19.10;16.90;;;24.00;53.90;;;;;;5002103;28;20465;-79
2022/03/03 11:20:52;;;;;;;20.57;17.30;;;24.30;54.20;;;;;;5009726;28;20442;-79
2022/03/03 11:23:20;;;;;;;18.87;16.87;;;24.60;54.70;;;;;;5010043;28;20462;-79
2022/03/03 11:25:49;;;;;;;18.70;16.80;;;25.00;53.50;;;;;;5009508;28;20487;-78
2022/03/03 11:28:18;;;;;;;18.30;16.40;;;25.00;53.50;;;;;;5009253;28;20458;-79
2022/03/03 11:30:47;;;;;;;19.37;17.27;;;23.70;54.10;;;;;;5010046;28;20486;-78
2022/03/03 11:33:27;;;;;;;20.23;17.13;;;23.50;54.50;;;;;;5009654;28;20469;-79
2022/03/03 11:35:56;;;;;;;18.33;16.53;;;23.60;53.80;;;;;;5008752;28;20454;-78
2022/03/03 11:38:25;;;;;;;19.03;16.83;;;24.00;54.10;;;;;;5009432;28;20532;-79
2022/03/03 11:40:54;;;;;;;19.00;17.00;;;24.60;53.00;;;;;;5009902;28;20470;-79
2022/03/03 11:43:21;;;;;;;18.80;16.80;;;24.70;53.70;;;;;;5009389;28;20513;-78
2022/03/03 11:45:54;;;;;;;18.03;16.13;;;24.50;53.20;;;;;;5009616;28;20482;-78
2022/03/03 11:48:22;;;;;;;18.07;15.27;;;24.60;51.70;;;;;;5008641;28;20673;-78
2022/03/03 11:50:50;;;;;;;17.77;15.97;;;24.80;50.80;;;;;;5009234;28;20482;-78
2022/03/03 11:53:22;;;;;;;17.50;15.60;;;24.90;50.90;;;;;;5009235;28;20474;-78
2022/03/03 11:55:58;;;;;;;21.57;16.23;;;23.50;52.10;;;;;;5008811;28;20454;-79
2022/03/03 11:58:32;;;;;;;18.37;15.93;;;23.70;52.60;;;;;;5008751;28;20453;-78
2022/03/03 12:01:11;;;;;;;20.53;16.60;;;24.50;52.30;;;;;;5008568;28;20457;-78
2022/03/03 12:04:00;;;;;;;18.57;15.77;;;24.50;51.70;;;;;;5009501;28;20474;-79
2022/03/03 12:06:38;;;;;;;17.90;16.00;;;24.60;51.60;;;;;;5006443;28;20557;-79
2022/03/03 12:09:19;;;;;;;18.17;16.30;;;24.90;50.90;;;;;;4997942;28;20466;-79
2022/03/03 12:11:46;;;;;;;16.43;14.70;;;24.60;51.20;;;;;;5004314;28;20466;-78
2022/03/03 12:14:29;;;;;;;18.93;15.40;;;25.20;51.20;;;;;;5002852;28;20490;-78
2022/03/03 12:17:42;;;;;;;18.50;15.90;;;24.90;51.00;;;;;;5004397;28;20498;-79
2022/03/03 12:20:29;;;;;;;17.07;14.60;;;25.10;50.40;;;;;;5005863;28;21035;-78
2022/03/03 12:23:10;;;;;;;16.03;14.33;;;25.00;50.50;;;;;;5012818;28;20957;-78
2022/03/03 12:26:01;;;;;;;16.30;14.60;;;25.10;49.50;;;;;;5008468;28;20558;-79
2022/03/03 12:28:36;;;;;;;14.60;13.20;;;25.30;49.90;;;;;;5007060;28;20475;-78
2022/03/03 12:31:19;;;;;;;15.53;13.43;;;25.90;50.20;;;;;;5008934;28;20462;-78
2022/03/03 12:33:58;;;;;;;18.67;13.97;;;26.20;47.50;;;;;;5008559;28;20482;-79
2022/03/03 12:36:25;;;;;;;16.20;14.50;;;26.30;47.00;;;;;;5007864;28;20549;-79